sensor_id;sensor_type;location;lat;lon;timestamp;P1;durP1;ratioP1;P2;durP2;ratioP2
37657;SDS011;23500;53.268;8.308;2022-09-09T00:04:12;1.63;;;1.52;;
37657;SDS011;23500;53.268;8.308;2022-09-09T00:07:35;1.70;;;1.60;;
37657;SDS011;23500;53.268;8.308;2022-09-09T00:09:50;1.55;;;1.45;;
37657;SDS011;23500;53.268;8.308;2022-09-09T00:17:38;1.70;;;1.60;;
37657;SDS011;23500;53.268;8.308;2022-09-09T00:22:47;1.40;;;1.30;;
37657;SDS011;23500;53.268;8.308;2022-09-09T00:25:46;1.73;;;1.63;;
37657;SDS011;23500;53.268;8.308;2022-09-09T00:28:23;1.60;;;1.50;;
37657;SDS011;23500;53.268;8.308;2022-09-09T00:30:52;1.70;;;1.60;;
37657;SDS011;23500;53.268;8.308;2022-09-09T00:33:19;1.48;;;1.38;;
37657;SDS011;23500;53.268;8.308;2022-09-09T00:35:48;1.52;;;1.45;;
37657;SDS011;23500;53.268;8.308;2022-09-09T00:38:18;1.60;;;1.50;;
37657;SDS011;23500;53.268;8.308;2022-09-09T00:43:40;1.67;;;1.58;;
37657;SDS011;23500;53.268;8.308;2022-09-09T00:54:30;1.50;;;1.40;;
37657;SDS011;23500;53.268;8.308;2022-09-09T01:02:48;1.73;;;1.63;;
37657;SDS011;23500;53.268;8.308;2022-09-09T01:05:08;1.60;;;1.50;;
37657;SDS011;23500;53.268;8.308;2022-09-09T01:07:44;1.42;;;1.33;;
37657;SDS011;23500;53.268;8.308;2022-09-09T01:10:26;1.48;;;1.38;;
37657;SDS011;23500;53.268;8.308;2022-09-09T01:13:08;1.67;;;1.58;;
37657;SDS011;23500;53.268;8.308;2022-09-09T01:15:41;1.50;;;1.30;;
37657;SDS011;23500;53.268;8.308;2022-09-09T01:18:12;1.77;;;1.67;;
37657;SDS011;23500;53.268;8.308;2022-09-09T01:28:52;2.17;;;1.58;;
37657;SDS011;23500;53.268;8.308;2022-09-09T01:31:36;1.50;;;1.40;;
37657;SDS011;23500;53.268;8.308;2022-09-09T01:34:15;1.50;;;1.40;;
37657;SDS011;23500;53.268;8.308;2022-09-09T01:39:13;1.40;;;1.30;;
37657;SDS011;23500;53.268;8.308;2022-09-09T01:41:39;1.50;;;1.40;;
37657;SDS011;23500;53.268;8.308;2022-09-09T01:44:05;1.75;;;1.50;;
37657;SDS011;23500;53.268;8.308;2022-09-09T01:46:32;1.27;;;1.27;;
37657;SDS011;23500;53.268;8.308;2022-09-09T01:48:58;1.58;;;1.48;;
37657;SDS011;23500;53.268;8.308;2022-09-09T01:51:25;1.35;;;1.35;;
37657;SDS011;23500;53.268;8.308;2022-09-09T01:53:51;1.55;;;1.40;;
37657;SDS011;23500;53.268;8.308;2022-09-09T02:00:20;1.30;;;1.20;;
37657;SDS011;23500;53.268;8.308;2022-09-09T02:05:11;1.50;;;1.40;;
37657;SDS011;23500;53.268;8.308;2022-09-09T02:07:48;1.50;;;1.40;;
37657;SDS011;23500;53.268;8.308;2022-09-09T02:10:24;1.60;;;1.50;;
37657;SDS011;23500;53.268;8.308;2022-09-09T02:13:01;1.55;;;1.45;;
37657;SDS011;23500;53.268;8.308;2022-09-09T02:15:47;1.42;;;1.33;;
37657;SDS011;23500;53.268;8.308;2022-09-09T02:18:27;1.38;;;1.30;;
37657;SDS011;23500;53.268;8.308;2022-09-09T02:20:58;1.42;;;1.33;;
37657;SDS011;23500;53.268;8.308;2022-09-09T02:23:24;1.40;;;1.30;;
37657;SDS011;23500;53.268;8.308;2022-09-09T02:25:51;1.65;;;1.55;;
37657;SDS011;23500;53.268;8.308;2022-09-09T02:28:18;1.58;;;1.48;;
37657;SDS011;23500;53.268;8.308;2022-09-09T02:30:46;1.50;;;1.40;;
37657;SDS011;23500;53.268;8.308;2022-09-09T02:33:20;1.17;;;1.17;;
37657;SDS011;23500;53.268;8.308;2022-09-09T02:35:51;1.50;;;1.40;;
37657;SDS011;23500;53.268;8.308;2022-09-09T02:38:21;1.40;;;1.30;;
37657;SDS011;23500;53.268;8.308;2022-09-09T02:40:53;1.30;;;1.20;;
37657;SDS011;23500;53.268;8.308;2022-09-09T02:43:19;1.50;;;1.40;;
37657;SDS011;23500;53.268;8.308;2022-09-09T02:45:48;1.50;;;1.40;;
37657;SDS011;23500;53.268;8.308;2022-09-09T02:51:51;1.48;;;1.38;;
37657;SDS011;23500;53.268;8.308;2022-09-09T02:56:53;1.40;;;1.30;;
37657;SDS011;23500;53.268;8.308;2022-09-09T02:59:19;1.48;;;1.40;;
37657;SDS011;23500;53.268;8.308;2022-09-09T03:01:46;1.52;;;1.42;;
37657;SDS011;23500;53.268;8.308;2022-09-09T03:04:12;1.50;;;1.40;;
37657;SDS011;23500;53.268;8.308;2022-09-09T03:06:39;1.48;;;1.38;;
37657;SDS011;23500;53.268;8.308;2022-09-09T03:09:05;1.55;;;1.45;;
37657;SDS011;23500;53.268;8.308;2022-09-09T03:11:30;1.50;;;1.40;;
37657;SDS011;23500;53.268;8.308;2022-09-09T03:13:56;1.40;;;1.30;;
37657;SDS011;23500;53.268;8.308;2022-09-09T03:16:22;1.50;;;1.40;;
37657;SDS011;23500;53.268;8.308;2022-09-09T03:18:48;1.40;;;1.30;;
37657;SDS011;23500;53.268;8.308;2022-09-09T03:21:14;1.50;;;1.40;;
37657;SDS011;23500;53.268;8.308;2022-09-09T03:23:40;1.20;;;1.20;;
37657;SDS011;23500;53.268;8.308;2022-09-09T03:26:06;1.70;;;1.60;;
37657;SDS011;23500;53.268;8.308;2022-09-09T03:28:32;1.58;;;1.48;;
37657;SDS011;23500;53.268;8.308;2022-09-09T03:30:59;1.60;;;1.50;;
37657;SDS011;23500;53.268;8.308;2022-09-09T03:33:25;1.55;;;1.45;;
37657;SDS011;23500;53.268;8.308;2022-09-09T03:35:51;1.60;;;1.50;;
37657;SDS011;23500;53.268;8.308;2022-09-09T03:38:18;1.50;;;1.40;;
37657;SDS011;23500;53.268;8.308;2022-09-09T03:40:53;1.60;;;1.50;;
37657;SDS011;23500;53.268;8.308;2022-09-09T03:43:22;1.40;;;1.38;;
37657;SDS011;23500;53.268;8.308;2022-09-09T03:45:51;1.35;;;1.30;;
37657;SDS011;23500;53.268;8.308;2022-09-09T03:48:18;1.45;;;1.35;;
37657;SDS011;23500;53.268;8.308;2022-09-09T03:50:53;1.52;;;1.42;;
37657;SDS011;23500;53.268;8.308;2022-09-09T03:53:22;1.33;;;1.30;;
37657;SDS011;23500;53.268;8.308;2022-09-09T03:55:50;1.60;;;1.50;;
37657;SDS011;23500;53.268;8.308;2022-09-09T03:58:20;1.40;;;1.30;;
37657;SDS011;23500;53.268;8.308;2022-09-09T04:00:59;1.30;;;1.30;;
37657;SDS011;23500;53.268;8.308;2022-09-09T04:03:26;1.35;;;1.30;;
37657;SDS011;23500;53.268;8.308;2022-09-09T04:05:53;1.35;;;1.25;;
37657;SDS011;23500;53.268;8.308;2022-09-09T04:08:20;1.45;;;1.35;;
37657;SDS011;23500;53.268;8.308;2022-09-09T04:10:50;1.40;;;1.30;;
37657;SDS011;23500;53.268;8.308;2022-09-09T04:13:17;1.40;;;1.30;;
37657;SDS011;23500;53.268;8.308;2022-09-09T04:15:48;1.13;;;1.13;;
37657;SDS011;23500;53.268;8.308;2022-09-09T04:18:16;1.30;;;1.20;;
37657;SDS011;23500;53.268;8.308;2022-09-09T04:20:42;1.30;;;1.23;;
37657;SDS011;23500;53.268;8.308;2022-09-09T04:23:08;1.45;;;1.35;;
37657;SDS011;23500;53.268;8.308;2022-09-09T04:25:34;1.45;;;1.35;;
37657;SDS011;23500;53.268;8.308;2022-09-09T04:28:00;1.50;;;1.40;;
37657;SDS011;23500;53.268;8.308;2022-09-09T04:30:25;1.40;;;1.30;;
37657;SDS011;23500;53.268;8.308;2022-09-09T04:32:52;1.60;;;1.30;;
37657;SDS011;23500;53.268;8.308;2022-09-09T04:35:18;1.42;;;1.33;;
37657;SDS011;23500;53.268;8.308;2022-09-09T04:37:45;1.23;;;1.20;;
37657;SDS011;23500;53.268;8.308;2022-09-09T04:40:11;1.10;;;1.10;;
37657;SDS011;23500;53.268;8.308;2022-09-09T04:42:37;1.23;;;1.20;;
37657;SDS011;23500;53.268;8.308;2022-09-09T04:45:03;1.40;;;1.30;;
37657;SDS011;23500;53.268;8.308;2022-09-09T04:47:31;1.38;;;1.27;;
37657;SDS011;23500;53.268;8.308;2022-09-09T04:49:57;1.60;;;1.50;;
37657;SDS011;23500;53.268;8.308;2022-09-09T04:52:22;1.48;;;1.38;;
37657;SDS011;23500;53.268;8.308;2022-09-09T04:54:48;1.48;;;1.38;;
37657;SDS011;23500;53.268;8.308;2022-09-09T04:57:13;1.20;;;1.20;;
37657;SDS011;23500;53.268;8.308;2022-09-09T04:59:39;1.27;;;1.17;;
37657;SDS011;23500;53.268;8.308;2022-09-09T05:02:05;1.25;;;1.20;;
37657;SDS011;23500;53.268;8.308;2022-09-09T05:04:31;1.20;;;1.20;;
37657;SDS011;23500;53.268;8.308;2022-09-09T05:06:58;1.40;;;1.30;;
37657;SDS011;23500;53.268;8.308;2022-09-09T05:09:24;1.35;;;1.25;;
37657;SDS011;23500;53.268;8.308;2022-09-09T05:11:49;1.23;;;1.17;;
37657;SDS011;23500;53.268;8.308;2022-09-09T05:14:16;1.30;;;1.30;;
37657;SDS011;23500;53.268;8.308;2022-09-09T05:16:43;1.60;;;1.50;;
37657;SDS011;23500;53.268;8.308;2022-09-09T05:19:09;1.40;;;1.30;;
37657;SDS011;23500;53.268;8.308;2022-09-09T05:21:35;1.30;;;1.30;;
37657;SDS011;23500;53.268;8.308;2022-09-09T05:24:01;1.30;;;1.20;;
37657;SDS011;23500;53.268;8.308;2022-09-09T05:26:26;1.35;;;1.33;;
37657;SDS011;23500;53.268;8.308;2022-09-09T05:28:54;1.27;;;1.27;;
37657;SDS011;23500;53.268;8.308;2022-09-09T05:31:20;1.27;;;1.27;;
37657;SDS011;23500;53.268;8.308;2022-09-09T05:33:46;1.08;;;1.08;;
37657;SDS011;23500;53.268;8.308;2022-09-09T05:36:13;1.30;;;1.30;;
37657;SDS011;23500;53.268;8.308;2022-09-09T05:38:44;1.10;;;1.10;;
37657;SDS011;23500;53.268;8.308;2022-09-09T05:41:10;1.45;;;1.35;;
37657;SDS011;23500;53.268;8.308;2022-09-09T05:43:37;1.23;;;1.23;;
37657;SDS011;23500;53.268;8.308;2022-09-09T05:46:10;1.23;;;1.20;;
37657;SDS011;23500;53.268;8.308;2022-09-09T05:48:38;1.35;;;1.25;;
37657;SDS011;23500;53.268;8.308;2022-09-09T05:51:06;1.45;;;1.35;;
37657;SDS011;23500;53.268;8.308;2022-09-09T05:53:33;1.38;;;1.27;;
37657;SDS011;23500;53.268;8.308;2022-09-09T05:56:03;1.30;;;1.20;;
37657;SDS011;23500;53.268;8.308;2022-09-09T05:58:33;1.20;;;1.20;;
37657;SDS011;23500;53.268;8.308;2022-09-09T06:01:06;1.23;;;1.13;;
37657;SDS011;23500;53.268;8.308;2022-09-09T06:03:35;1.50;;;1.40;;
37657;SDS011;23500;53.268;8.308;2022-09-09T06:06:02;1.02;;;1.02;;
37657;SDS011;23500;53.268;8.308;2022-09-09T06:08:33;1.15;;;1.15;;
37657;SDS011;23500;53.268;8.308;2022-09-09T06:11:12;1.33;;;1.25;;
37657;SDS011;23500;53.268;8.308;2022-09-09T06:13:40;1.40;;;1.30;;
37657;SDS011;23500;53.268;8.308;2022-09-09T06:16:07;1.40;;;1.30;;
37657;SDS011;23500;53.268;8.308;2022-09-09T06:18:43;1.20;;;1.20;;
37657;SDS011;23500;53.268;8.308;2022-09-09T06:21:15;0.98;;;0.98;;
37657;SDS011;23500;53.268;8.308;2022-09-09T06:23:45;1.40;;;1.30;;
37657;SDS011;23500;53.268;8.308;2022-09-09T06:26:16;1.20;;;1.10;;
37657;SDS011;23500;53.268;8.308;2022-09-09T06:28:44;1.58;;;1.48;;
37657;SDS011;23500;53.268;8.308;2022-09-09T06:31:11;1.13;;;1.13;;
37657;SDS011;23500;53.268;8.308;2022-09-09T06:33:39;1.23;;;1.20;;
37657;SDS011;23500;53.268;8.308;2022-09-09T06:36:09;1.15;;;1.10;;
37657;SDS011;23500;53.268;8.308;2022-09-09T06:38:40;1.10;;;1.10;;
37657;SDS011;23500;53.268;8.308;2022-09-09T06:41:07;1.00;;;1.00;;
37657;SDS011;23500;53.268;8.308;2022-09-09T06:43:34;1.10;;;1.10;;
37657;SDS011;23500;53.268;8.308;2022-09-09T06:48:56;1.00;;;1.00;;
37657;SDS011;23500;53.268;8.308;2022-09-09T06:51:23;1.10;;;1.10;;
37657;SDS011;23500;53.268;8.308;2022-09-09T06:53:51;1.10;;;1.10;;
37657;SDS011;23500;53.268;8.308;2022-09-09T06:58:47;1.27;;;1.17;;
37657;SDS011;23500;53.268;8.308;2022-09-09T07:01:15;1.08;;;1.08;;
37657;SDS011;23500;53.268;8.308;2022-09-09T07:03:42;1.10;;;1.10;;
37657;SDS011;23500;53.268;8.308;2022-09-09T07:06:14;1.30;;;1.30;;
37657;SDS011;23500;53.268;8.308;2022-09-09T07:08:42;1.00;;;1.00;;
37657;SDS011;23500;53.268;8.308;2022-09-09T07:11:09;1.10;;;1.10;;
37657;SDS011;23500;53.268;8.308;2022-09-09T07:13:36;1.08;;;0.98;;
37657;SDS011;23500;53.268;8.308;2022-09-09T07:18:32;1.10;;;1.10;;
37657;SDS011;23500;53.268;8.308;2022-09-09T07:20:59;1.13;;;1.10;;
37657;SDS011;23500;53.268;8.308;2022-09-09T07:23:26;1.10;;;1.10;;
37657;SDS011;23500;53.268;8.308;2022-09-09T07:25:51;1.30;;;1.20;;
37657;SDS011;23500;53.268;8.308;2022-09-09T07:28:18;1.17;;;1.15;;
37657;SDS011;23500;53.268;8.308;2022-09-09T07:30:52;1.20;;;1.20;;
37657;SDS011;23500;53.268;8.308;2022-09-09T07:33:19;0.90;;;0.90;;
37657;SDS011;23500;53.268;8.308;2022-09-09T07:35:45;1.10;;;1.10;;
37657;SDS011;23500;53.268;8.308;2022-09-09T07:38:10;1.05;;;1.05;;
37657;SDS011;23500;53.268;8.308;2022-09-09T07:40:36;1.05;;;1.05;;
37657;SDS011;23500;53.268;8.308;2022-09-09T07:43:02;1.00;;;1.00;;
37657;SDS011;23500;53.268;8.308;2022-09-09T07:45:28;1.30;;;1.17;;
37657;SDS011;23500;53.268;8.308;2022-09-09T07:47:54;1.00;;;1.00;;
37657;SDS011;23500;53.268;8.308;2022-09-09T07:50:22;1.05;;;1.05;;
37657;SDS011;23500;53.268;8.308;2022-09-09T07:52:48;1.10;;;1.10;;
37657;SDS011;23500;53.268;8.308;2022-09-09T07:55:15;1.10;;;1.10;;
37657;SDS011;23500;53.268;8.308;2022-09-09T07:57:41;1.10;;;1.10;;
37657;SDS011;23500;53.268;8.308;2022-09-09T08:00:07;1.00;;;1.00;;
37657;SDS011;23500;53.268;8.308;2022-09-09T08:02:33;1.10;;;1.10;;
37657;SDS011;23500;53.268;8.308;2022-09-09T08:04:58;0.85;;;0.85;;
37657;SDS011;23500;53.268;8.308;2022-09-09T08:07:24;1.00;;;1.00;;
37657;SDS011;23500;53.268;8.308;2022-09-09T08:09:50;1.08;;;1.08;;
37657;SDS011;23500;53.268;8.308;2022-09-09T08:12:16;1.00;;;1.00;;
37657;SDS011;23500;53.268;8.308;2022-09-09T08:14:41;0.90;;;0.90;;
37657;SDS011;23500;53.268;8.308;2022-09-09T08:17:07;1.00;;;1.00;;
37657;SDS011;23500;53.268;8.308;2022-09-09T08:19:33;1.00;;;1.00;;
37657;SDS011;23500;53.268;8.308;2022-09-09T08:22:00;1.08;;;1.05;;
37657;SDS011;23500;53.268;8.308;2022-09-09T08:24:27;0.90;;;0.90;;
37657;SDS011;23500;53.268;8.308;2022-09-09T08:26:53;1.00;;;1.00;;
37657;SDS011;23500;53.268;8.308;2022-09-09T08:29:19;1.10;;;1.10;;
37657;SDS011;23500;53.268;8.308;2022-09-09T08:34:10;1.05;;;1.05;;
37657;SDS011;23500;53.268;8.308;2022-09-09T08:36:37;0.95;;;0.95;;
37657;SDS011;23500;53.268;8.308;2022-09-09T08:39:08;1.00;;;1.00;;
37657;SDS011;23500;53.268;8.308;2022-09-09T08:52:03;0.95;;;0.95;;
37657;SDS011;23500;53.268;8.308;2022-09-09T08:54:38;1.00;;;1.00;;
37657;SDS011;23500;53.268;8.308;2022-09-09T08:57:05;0.90;;;0.90;;
37657;SDS011;23500;53.268;8.308;2022-09-09T08:59:39;1.10;;;1.10;;
37657;SDS011;23500;53.268;8.308;2022-09-09T09:02:14;0.90;;;0.90;;
37657;SDS011;23500;53.268;8.308;2022-09-09T09:07:28;0.90;;;0.90;;
37657;SDS011;23500;53.268;8.308;2022-09-09T09:12:57;0.95;;;0.95;;
37657;SDS011;23500;53.268;8.308;2022-09-09T09:15:26;1.02;;;1.02;;
37657;SDS011;23500;53.268;8.308;2022-09-09T09:17:55;1.00;;;1.00;;
37657;SDS011;23500;53.268;8.308;2022-09-09T09:23:06;0.93;;;0.93;;
37657;SDS011;23500;53.268;8.308;2022-09-09T09:25:41;0.90;;;0.90;;
37657;SDS011;23500;53.268;8.308;2022-09-09T09:28:16;0.98;;;0.98;;
37657;SDS011;23500;53.268;8.308;2022-09-09T09:36:01;1.20;;;1.10;;
37657;SDS011;23500;53.268;8.308;2022-09-09T09:38:28;0.95;;;0.95;;
37657;SDS011;23500;53.268;8.308;2022-09-09T09:40:57;1.10;;;1.10;;
37657;SDS011;23500;53.268;8.308;2022-09-09T09:43:27;0.90;;;0.90;;
37657;SDS011;23500;53.268;8.308;2022-09-09T09:45:54;0.88;;;0.88;;
37657;SDS011;23500;53.268;8.308;2022-09-09T09:48:23;1.00;;;1.00;;
37657;SDS011;23500;53.268;8.308;2022-09-09T09:50:53;1.02;;;1.02;;
37657;SDS011;23500;53.268;8.308;2022-09-09T09:53:40;0.93;;;0.93;;
37657;SDS011;23500;53.268;8.308;2022-09-09T09:56:06;1.02;;;1.02;;
37657;SDS011;23500;53.268;8.308;2022-09-09T10:01:22;0.90;;;0.90;;
37657;SDS011;23500;53.268;8.308;2022-09-09T10:06:33;1.00;;;1.00;;
37657;SDS011;23500;53.268;8.308;2022-09-09T10:09:02;1.00;;;1.00;;
37657;SDS011;23500;53.268;8.308;2022-09-09T10:17:13;1.00;;;1.00;;
37657;SDS011;23500;53.268;8.308;2022-09-09T10:22:51;0.98;;;0.98;;
37657;SDS011;23500;53.268;8.308;2022-09-09T10:36:13;0.90;;;0.90;;
37657;SDS011;23500;53.268;8.308;2022-09-09T10:38:55;1.10;;;1.10;;
37657;SDS011;23500;53.268;8.308;2022-09-09T10:41:40;0.90;;;0.90;;
37657;SDS011;23500;53.268;8.308;2022-09-09T10:49:57;0.80;;;0.80;;
37657;SDS011;23500;53.268;8.308;2022-09-09T10:55:17;0.90;;;0.90;;
37657;SDS011;23500;53.268;8.308;2022-09-09T10:57:45;0.85;;;0.85;;
37657;SDS011;23500;53.268;8.308;2022-09-09T11:00:15;0.90;;;0.90;;
37657;SDS011;23500;53.268;8.308;2022-09-09T11:02:46;1.00;;;1.00;;
37657;SDS011;23500;53.268;8.308;2022-09-09T11:07:51;1.02;;;1.02;;
37657;SDS011;23500;53.268;8.308;2022-09-09T11:13:21;0.90;;;0.90;;
37657;SDS011;23500;53.268;8.308;2022-09-09T11:15:52;0.82;;;0.82;;
37657;SDS011;23500;53.268;8.308;2022-09-09T11:18:25;0.77;;;0.77;;
37657;SDS011;23500;53.268;8.308;2022-09-09T11:20:56;0.80;;;0.80;;
37657;SDS011;23500;53.268;8.308;2022-09-09T11:24:03;0.90;;;0.90;;
37657;SDS011;23500;53.268;8.308;2022-09-09T11:26:29;0.90;;;0.90;;
37657;SDS011;23500;53.268;8.308;2022-09-09T11:40:56;0.90;;;0.90;;
37657;SDS011;23500;53.268;8.308;2022-09-09T11:43:31;0.90;;;0.90;;
37657;SDS011;23500;53.268;8.308;2022-09-09T11:46:03;0.70;;;0.70;;
37657;SDS011;23500;53.268;8.308;2022-09-09T11:51:02;1.35;;;1.05;;
37657;SDS011;23500;53.268;8.308;2022-09-09T11:53:46;0.82;;;0.82;;
37657;SDS011;23500;53.268;8.308;2022-09-09T11:56:47;0.90;;;0.90;;
37657;SDS011;23500;53.268;8.308;2022-09-09T11:59:21;0.85;;;0.85;;
37657;SDS011;23500;53.268;8.308;2022-09-09T12:07:00;0.80;;;0.80;;
37657;SDS011;23500;53.268;8.308;2022-09-09T12:14:42;0.95;;;0.95;;
37657;SDS011;23500;53.268;8.308;2022-09-09T12:17:20;0.90;;;0.90;;
37657;SDS011;23500;53.268;8.308;2022-09-09T12:19:47;0.70;;;0.70;;
37657;SDS011;23500;53.268;8.308;2022-09-09T12:28:11;1.00;;;1.00;;
37657;SDS011;23500;53.268;8.308;2022-09-09T12:30:44;0.80;;;0.80;;
37657;SDS011;23500;53.268;8.308;2022-09-09T12:33:36;0.88;;;0.88;;
37657;SDS011;23500;53.268;8.308;2022-09-09T12:36:05;0.90;;;0.90;;
37657;SDS011;23500;53.268;8.308;2022-09-09T12:38:39;0.80;;;0.80;;
37657;SDS011;23500;53.268;8.308;2022-09-09T12:41:05;0.95;;;0.95;;
37657;SDS011;23500;53.268;8.308;2022-09-09T12:43:44;0.90;;;0.90;;
37657;SDS011;23500;53.268;8.308;2022-09-09T12:46:12;1.00;;;1.00;;
37657;SDS011;23500;53.268;8.308;2022-09-09T12:48:46;0.75;;;0.75;;
37657;SDS011;23500;53.268;8.308;2022-09-09T12:51:26;0.90;;;0.90;;
37657;SDS011;23500;53.268;8.308;2022-09-09T12:53:58;0.90;;;0.90;;
37657;SDS011;23500;53.268;8.308;2022-09-09T12:56:25;0.80;;;0.80;;
37657;SDS011;23500;53.268;8.308;2022-09-09T12:58:55;0.80;;;0.80;;
37657;SDS011;23500;53.268;8.308;2022-09-09T13:01:29;0.80;;;0.80;;
37657;SDS011;23500;53.268;8.308;2022-09-09T13:03:56;0.90;;;0.90;;
37657;SDS011;23500;53.268;8.308;2022-09-09T13:06:27;0.82;;;0.82;;
37657;SDS011;23500;53.268;8.308;2022-09-09T13:08:54;0.88;;;0.88;;
37657;SDS011;23500;53.268;8.308;2022-09-09T13:11:23;0.90;;;0.90;;
37657;SDS011;23500;53.268;8.308;2022-09-09T13:13:59;1.13;;;0.88;;
37657;SDS011;23500;53.268;8.308;2022-09-09T13:16:26;0.88;;;0.88;;
37657;SDS011;23500;53.268;8.308;2022-09-09T13:18:56;1.00;;;1.00;;
37657;SDS011;23500;53.268;8.308;2022-09-09T13:21:32;0.90;;;0.90;;
37657;SDS011;23500;53.268;8.308;2022-09-09T13:24:03;0.70;;;0.70;;
37657;SDS011;23500;53.268;8.308;2022-09-09T13:26:55;0.80;;;0.80;;
37657;SDS011;23500;53.268;8.308;2022-09-09T13:29:50;0.73;;;0.73;;
37657;SDS011;23500;53.268;8.308;2022-09-09T13:32:20;0.85;;;0.85;;
37657;SDS011;23500;53.268;8.308;2022-09-09T13:34:56;0.90;;;0.90;;
37657;SDS011;23500;53.268;8.308;2022-09-09T13:40:00;0.80;;;0.80;;
37657;SDS011;23500;53.268;8.308;2022-09-09T13:42:28;0.88;;;0.88;;
37657;SDS011;23500;53.268;8.308;2022-09-09T13:44:56;0.80;;;0.80;;
37657;SDS011;23500;53.268;8.308;2022-09-09T13:47:30;0.70;;;0.70;;
37657;SDS011;23500;53.268;8.308;2022-09-09T13:49:58;0.80;;;0.80;;
37657;SDS011;23500;53.268;8.308;2022-09-09T13:52:23;0.88;;;0.88;;
37657;SDS011;23500;53.268;8.308;2022-09-09T13:54:56;0.85;;;0.85;;
37657;SDS011;23500;53.268;8.308;2022-09-09T13:57:23;0.90;;;0.90;;
37657;SDS011;23500;53.268;8.308;2022-09-09T13:59:50;0.90;;;0.90;;
37657;SDS011;23500;53.268;8.308;2022-09-09T14:02:17;0.80;;;0.80;;
37657;SDS011;23500;53.268;8.308;2022-09-09T14:04:43;0.70;;;0.70;;
37657;SDS011;23500;53.268;8.308;2022-09-09T14:07:13;0.73;;;0.73;;
37657;SDS011;23500;53.268;8.308;2022-09-09T14:09:40;0.98;;;0.98;;
37657;SDS011;23500;53.268;8.308;2022-09-09T14:12:12;0.80;;;0.80;;
37657;SDS011;23500;53.268;8.308;2022-09-09T14:14:40;0.90;;;0.90;;
37657;SDS011;23500;53.268;8.308;2022-09-09T14:17:07;0.90;;;0.90;;
37657;SDS011;23500;53.268;8.308;2022-09-09T14:19:33;0.70;;;0.70;;
37657;SDS011;23500;53.268;8.308;2022-09-09T14:21:59;0.80;;;0.80;;
37657;SDS011;23500;53.268;8.308;2022-09-09T14:24:26;0.90;;;0.90;;
37657;SDS011;23500;53.268;8.308;2022-09-09T14:26:52;0.90;;;0.90;;
37657;SDS011;23500;53.268;8.308;2022-09-09T14:29:18;0.90;;;0.90;;
37657;SDS011;23500;53.268;8.308;2022-09-09T14:31:44;0.77;;;0.77;;
37657;SDS011;23500;53.268;8.308;2022-09-09T14:34:10;0.77;;;0.77;;
37657;SDS011;23500;53.268;8.308;2022-09-09T14:36:36;0.73;;;0.73;;
37657;SDS011;23500;53.268;8.308;2022-09-09T14:39:02;0.80;;;0.80;;
37657;SDS011;23500;53.268;8.308;2022-09-09T14:41:29;0.70;;;0.70;;
37657;SDS011;23500;53.268;8.308;2022-09-09T14:43:55;0.88;;;0.82;;
37657;SDS011;23500;53.268;8.308;2022-09-09T14:46:21;0.90;;;0.90;;
37657;SDS011;23500;53.268;8.308;2022-09-09T14:48:47;0.70;;;0.70;;
37657;SDS011;23500;53.268;8.308;2022-09-09T14:51:20;0.60;;;0.60;;
37657;SDS011;23500;53.268;8.308;2022-09-09T14:53:53;0.70;;;0.70;;
37657;SDS011;23500;53.268;8.308;2022-09-09T14:56:21;0.65;;;0.65;;
37657;SDS011;23500;53.268;8.308;2022-09-09T14:58:48;0.88;;;0.88;;
37657;SDS011;23500;53.268;8.308;2022-09-09T15:01:15;0.90;;;0.90;;
37657;SDS011;23500;53.268;8.308;2022-09-09T15:03:42;0.70;;;0.70;;
37657;SDS011;23500;53.268;8.308;2022-09-09T15:06:14;0.82;;;0.82;;
37657;SDS011;23500;53.268;8.308;2022-09-09T15:08:41;0.70;;;0.70;;
37657;SDS011;23500;53.268;8.308;2022-09-09T15:11:08;0.80;;;0.80;;
37657;SDS011;23500;53.268;8.308;2022-09-09T15:13:35;0.70;;;0.70;;
37657;SDS011;23500;53.268;8.308;2022-09-09T15:16:14;0.70;;;0.70;;
37657;SDS011;23500;53.268;8.308;2022-09-09T15:18:44;0.80;;;0.80;;
37657;SDS011;23500;53.268;8.308;2022-09-09T15:21:18;0.80;;;0.80;;
37657;SDS011;23500;53.268;8.308;2022-09-09T15:23:46;0.77;;;0.77;;
37657;SDS011;23500;53.268;8.308;2022-09-09T15:26:12;0.90;;;0.90;;
37657;SDS011;23500;53.268;8.308;2022-09-09T15:28:39;0.75;;;0.75;;
37657;SDS011;23500;53.268;8.308;2022-09-09T15:31:15;0.70;;;0.70;;
37657;SDS011;23500;53.268;8.308;2022-09-09T15:33:49;0.77;;;0.77;;
37657;SDS011;23500;53.268;8.308;2022-09-09T15:36:22;0.63;;;0.63;;
37657;SDS011;23500;53.268;8.308;2022-09-09T15:38:50;0.70;;;0.70;;
37657;SDS011;23500;53.268;8.308;2022-09-09T15:41:17;0.77;;;0.77;;
37657;SDS011;23500;53.268;8.308;2022-09-09T15:43:45;0.93;;;0.88;;
37657;SDS011;23500;53.268;8.308;2022-09-09T15:49:19;0.77;;;0.77;;
37657;SDS011;23500;53.268;8.308;2022-09-09T15:51:45;1.00;;;1.00;;
37657;SDS011;23500;53.268;8.308;2022-09-09T15:54:15;0.80;;;0.80;;
37657;SDS011;23500;53.268;8.308;2022-09-09T15:56:43;0.80;;;0.80;;
37657;SDS011;23500;53.268;8.308;2022-09-09T15:59:11;0.80;;;0.80;;
37657;SDS011;23500;53.268;8.308;2022-09-09T16:01:37;0.80;;;0.80;;
37657;SDS011;23500;53.268;8.308;2022-09-09T16:04:07;0.73;;;0.73;;
37657;SDS011;23500;53.268;8.308;2022-09-09T16:06:33;0.77;;;0.77;;
37657;SDS011;23500;53.268;8.308;2022-09-09T16:08:59;0.98;;;0.90;;
37657;SDS011;23500;53.268;8.308;2022-09-09T16:11:31;0.70;;;0.70;;
37657;SDS011;23500;53.268;8.308;2022-09-09T16:14:02;0.80;;;0.80;;
37657;SDS011;23500;53.268;8.308;2022-09-09T16:16:29;0.70;;;0.70;;
37657;SDS011;23500;53.268;8.308;2022-09-09T16:19:16;0.80;;;0.80;;
37657;SDS011;23500;53.268;8.308;2022-09-09T16:21:42;0.80;;;0.80;;
37657;SDS011;23500;53.268;8.308;2022-09-09T16:24:10;0.73;;;0.73;;
37657;SDS011;23500;53.268;8.308;2022-09-09T16:26:39;1.65;;;0.65;;
37657;SDS011;23500;53.268;8.308;2022-09-09T16:29:09;0.80;;;0.80;;
37657;SDS011;23500;53.268;8.308;2022-09-09T16:31:35;0.80;;;0.80;;
37657;SDS011;23500;53.268;8.308;2022-09-09T16:34:01;1.05;;;0.90;;
37657;SDS011;23500;53.268;8.308;2022-09-09T16:36:29;0.85;;;0.80;;
37657;SDS011;23500;53.268;8.308;2022-09-09T16:38:56;0.70;;;0.70;;
37657;SDS011;23500;53.268;8.308;2022-09-09T16:41:23;0.93;;;0.93;;
37657;SDS011;23500;53.268;8.308;2022-09-09T16:43:57;0.90;;;0.90;;
37657;SDS011;23500;53.268;8.308;2022-09-09T16:46:27;0.88;;;0.88;;
37657;SDS011;23500;53.268;8.308;2022-09-09T16:48:55;0.80;;;0.80;;
37657;SDS011;23500;53.268;8.308;2022-09-09T16:51:30;0.90;;;0.85;;
37657;SDS011;23500;53.268;8.308;2022-09-09T16:53:58;0.80;;;0.80;;
37657;SDS011;23500;53.268;8.308;2022-09-09T16:56:26;0.70;;;0.70;;
37657;SDS011;23500;53.268;8.308;2022-09-09T16:58:56;0.70;;;0.70;;
37657;SDS011;23500;53.268;8.308;2022-09-09T17:01:24;0.98;;;0.85;;
37657;SDS011;23500;53.268;8.308;2022-09-09T17:03:52;0.80;;;0.80;;
37657;SDS011;23500;53.268;8.308;2022-09-09T17:06:26;0.70;;;0.70;;
37657;SDS011;23500;53.268;8.308;2022-09-09T17:08:56;0.90;;;0.90;;
37657;SDS011;23500;53.268;8.308;2022-09-09T17:11:23;0.70;;;0.70;;
37657;SDS011;23500;53.268;8.308;2022-09-09T17:13:49;1.38;;;0.98;;
37657;SDS011;23500;53.268;8.308;2022-09-09T17:16:17;0.90;;;0.90;;
37657;SDS011;23500;53.268;8.308;2022-09-09T17:18:46;0.80;;;0.80;;
37657;SDS011;23500;53.268;8.308;2022-09-09T17:21:13;0.60;;;0.60;;
37657;SDS011;23500;53.268;8.308;2022-09-09T17:23:42;0.80;;;0.80;;
37657;SDS011;23500;53.268;8.308;2022-09-09T17:26:09;0.80;;;0.80;;
37657;SDS011;23500;53.268;8.308;2022-09-09T17:28:37;0.80;;;0.80;;
37657;SDS011;23500;53.268;8.308;2022-09-09T17:31:04;0.77;;;0.77;;
37657;SDS011;23500;53.268;8.308;2022-09-09T17:33:35;0.90;;;0.90;;
37657;SDS011;23500;53.268;8.308;2022-09-09T17:36:09;0.90;;;0.90;;
37657;SDS011;23500;53.268;8.308;2022-09-09T17:38:40;0.80;;;0.80;;
37657;SDS011;23500;53.268;8.308;2022-09-09T17:41:12;0.70;;;0.70;;
37657;SDS011;23500;53.268;8.308;2022-09-09T17:43:43;0.85;;;0.85;;